sensor_id;sensor_type;location;lat;lon;timestamp;pressure;altitude;pressure_sealevel;temperature;humidity
41596;BME280;27283;52.504;13.358;2023-07-13T00:01:24;100877.34;;;19.23;61.14
41596;BME280;27283;52.504;13.358;2023-07-13T00:04:04;100883.56;;;19.37;60.55
41596;BME280;27283;52.504;13.358;2023-07-13T00:06:41;100892.25;;;19.21;61.35
41596;BME280;27283;52.504;13.358;2023-07-13T00:09:15;100880.78;;;19.12;61.41
41596;BME280;27283;52.504;13.358;2023-07-13T00:11:51;100882.25;;;19.15;61.32
41596;BME280;27283;52.504;13.358;2023-07-13T00:14:28;100885.72;;;19.28;61.18
41596;BME280;27283;52.504;13.358;2023-07-13T00:17:03;100884.22;;;19.33;61.15
41596;BME280;27283;52.504;13.358;2023-07-13T00:19:36;100882.38;;;19.52;60.26
41596;BME280;27283;52.504;13.358;2023-07-13T00:22:12;100890.97;;;19.55;60.34
41596;BME280;27283;52.504;13.358;2023-07-13T00:24:45;100881.03;;;19.61;59.71
41596;BME280;27283;52.504;13.358;2023-07-13T00:27:19;100891.47;;;19.71;60.12
41596;BME280;27283;52.504;13.358;2023-07-13T00:29:52;100888.97;;;19.69;59.66
41596;BME280;27283;52.504;13.358;2023-07-13T00:32:26;100892.06;;;19.73;59.39
41596;BME280;27283;52.504;13.358;2023-07-13T00:34:59;100896.09;;;19.70;60.01
41596;BME280;27283;52.504;13.358;2023-07-13T00:37:39;100903.38;;;19.76;59.88
41596;BME280;27283;52.504;13.358;2023-07-13T00:40:16;100888.28;;;19.74;59.49
41596;BME280;27283;52.504;13.358;2023-07-13T00:42:52;100885.00;;;19.65;60.14
41596;BME280;27283;52.504;13.358;2023-07-13T00:48:31;100881.25;;;19.59;61.23
41596;BME280;27283;52.504;13.358;2023-07-13T00:51:05;100884.63;;;19.61;60.88
41596;BME280;27283;52.504;13.358;2023-07-13T00:53:42;100885.91;;;19.59;61.34
41596;BME280;27283;52.504;13.358;2023-07-13T00:56:22;100890.34;;;19.53;60.88
41596;BME280;27283;52.504;13.358;2023-07-13T00:59:07;100886.63;;;19.47;61.32
41596;BME280;27283;52.504;13.358;2023-07-13T01:01:43;100884.09;;;19.46;62.27
41596;BME280;27283;52.504;13.358;2023-07-13T01:04:17;100888.56;;;19.40;62.34
41596;BME280;27283;52.504;13.358;2023-07-13T01:06:51;100891.53;;;19.32;62.80
41596;BME280;27283;52.504;13.358;2023-07-13T01:09:28;100891.59;;;18.93;63.99
41596;BME280;27283;52.504;13.358;2023-07-13T01:12:04;100893.31;;;19.20;63.75
41596;BME280;27283;52.504;13.358;2023-07-13T01:14:40;100894.34;;;19.19;64.14
41596;BME280;27283;52.504;13.358;2023-07-13T01:17:13;100894.84;;;19.09;63.67
41596;BME280;27283;52.504;13.358;2023-07-13T01:19:47;100893.38;;;18.61;65.35
41596;BME280;27283;52.504;13.358;2023-07-13T01:22:26;100894.09;;;18.36;67.76
41596;BME280;27283;52.504;13.358;2023-07-13T01:24:59;100903.53;;;18.27;68.26
41596;BME280;27283;52.504;13.358;2023-07-13T01:27:32;100908.38;;;18.18;69.11
41596;BME280;27283;52.504;13.358;2023-07-13T01:30:07;100909.00;;;18.14;69.93
41596;BME280;27283;52.504;13.358;2023-07-13T01:32:46;100903.38;;;18.02;71.05
41596;BME280;27283;52.504;13.358;2023-07-13T01:35:20;100900.03;;;18.00;71.06
41596;BME280;27283;52.504;13.358;2023-07-13T01:38:21;100898.16;;;18.00;71.76
41596;BME280;27283;52.504;13.358;2023-07-13T01:41:00;100890.00;;;17.94;71.89
41596;BME280;27283;52.504;13.358;2023-07-13T01:43:34;100897.53;;;17.92;72.83
41596;BME280;27283;52.504;13.358;2023-07-13T01:46:07;100892.91;;;17.85;72.58
41596;BME280;27283;52.504;13.358;2023-07-13T01:48:53;100904.00;;;17.84;73.52
41596;BME280;27283;52.504;13.358;2023-07-13T01:51:27;100887.28;;;17.80;74.03
41596;BME280;27283;52.504;13.358;2023-07-13T01:54:03;100881.19;;;17.78;74.78
41596;BME280;27283;52.504;13.358;2023-07-13T01:56:36;100894.38;;;17.75;74.67
41596;BME280;27283;52.504;13.358;2023-07-13T01:59:09;100891.25;;;17.71;75.67
41596;BME280;27283;52.504;13.358;2023-07-13T02:01:42;100890.59;;;17.69;75.48
41596;BME280;27283;52.504;13.358;2023-07-13T02:04:18;100906.91;;;17.69;74.73
41596;BME280;27283;52.504;13.358;2023-07-13T02:06:54;100898.78;;;17.62;75.19
41596;BME280;27283;52.504;13.358;2023-07-13T02:09:34;100893.13;;;17.64;73.99
41596;BME280;27283;52.504;13.358;2023-07-13T02:12:10;100897.53;;;17.65;73.44
41596;BME280;27283;52.504;13.358;2023-07-13T02:14:43;100893.53;;;17.67;73.42
41596;BME280;27283;52.504;13.358;2023-07-13T02:17:17;100895.84;;;17.70;72.88
41596;BME280;27283;52.504;13.358;2023-07-13T02:19:51;100897.31;;;17.73;73.94
41596;BME280;27283;52.504;13.358;2023-07-13T02:22:24;100898.75;;;17.69;73.25
41596;BME280;27283;52.504;13.358;2023-07-13T02:25:00;100895.63;;;17.72;72.49
41596;BME280;27283;52.504;13.358;2023-07-13T02:27:33;100883.09;;;17.71;72.79
41596;BME280;27283;52.504;13.358;2023-07-13T02:30:08;100876.19;;;17.68;73.35
41596;BME280;27283;52.504;13.358;2023-07-13T02:32:44;100867.19;;;17.68;73.00
41596;BME280;27283;52.504;13.358;2023-07-13T02:35:17;100869.47;;;17.64;72.62
41596;BME280;27283;52.504;13.358;2023-07-13T02:37:50;100876.78;;;17.57;74.51
41596;BME280;27283;52.504;13.358;2023-07-13T02:40:39;100881.41;;;17.57;74.16
41596;BME280;27283;52.504;13.358;2023-07-13T02:43:13;100880.16;;;17.46;75.11
41596;BME280;27283;52.504;13.358;2023-07-13T02:45:46;100888.50;;;17.51;74.70
41596;BME280;27283;52.504;13.358;2023-07-13T02:48:19;100885.78;;;17.51;75.09
41596;BME280;27283;52.504;13.358;2023-07-13T02:50:52;100892.50;;;17.48;75.03
41596;BME280;27283;52.504;13.358;2023-07-13T02:53:28;100897.09;;;17.41;76.19
41596;BME280;27283;52.504;13.358;2023-07-13T02:56:04;100897.91;;;17.42;76.14
41596;BME280;27283;52.504;13.358;2023-07-13T02:58:38;100898.75;;;17.35;76.81
41596;BME280;27283;52.504;13.358;2023-07-13T03:01:11;100907.53;;;17.31;77.28
41596;BME280;27283;52.504;13.358;2023-07-13T03:03:49;100915.47;;;17.32;77.38
41596;BME280;27283;52.504;13.358;2023-07-13T03:06:22;100920.28;;;17.30;78.05
41596;BME280;27283;52.504;13.358;2023-07-13T03:08:55;100926.34;;;17.26;78.63
41596;BME280;27283;52.504;13.358;2023-07-13T03:11:31;100923.78;;;17.17;79.80
41596;BME280;27283;52.504;13.358;2023-07-13T03:14:04;100917.91;;;17.07;80.58
41596;BME280;27283;52.504;13.358;2023-07-13T03:16:37;100919.19;;;17.05;80.51
41596;BME280;27283;52.504;13.358;2023-07-13T03:19:10;100925.44;;;17.12;79.16
41596;BME280;27283;52.504;13.358;2023-07-13T03:21:42;100922.72;;;17.12;80.04
41596;BME280;27283;52.504;13.358;2023-07-13T03:24:15;100921.28;;;17.09;80.28
41596;BME280;27283;52.504;13.358;2023-07-13T03:26:50;100927.75;;;17.15;80.42
41596;BME280;27283;52.504;13.358;2023-07-13T03:29:22;100929.22;;;17.17;79.80
41596;BME280;27283;52.504;13.358;2023-07-13T03:31:55;100939.47;;;17.15;81.69
41596;BME280;27283;52.504;13.358;2023-07-13T03:34:28;100933.84;;;17.17;80.75
41596;BME280;27283;52.504;13.358;2023-07-13T03:37:00;100943.47;;;17.20;79.81
41596;BME280;27283;52.504;13.358;2023-07-13T03:39:33;100946.41;;;17.31;78.70
41596;BME280;27283;52.504;13.358;2023-07-13T03:42:10;100947.09;;;17.47;77.14
41596;BME280;27283;52.504;13.358;2023-07-13T03:44:43;100944.78;;;17.44;77.34
41596;BME280;27283;52.504;13.358;2023-07-13T03:47:21;100945.38;;;17.39;78.62
41596;BME280;27283;52.504;13.358;2023-07-13T03:49:54;100948.72;;;17.48;78.22
41596;BME280;27283;52.504;13.358;2023-07-13T03:52:26;100957.72;;;17.62;76.89
41596;BME280;27283;52.504;13.358;2023-07-13T03:55:02;100942.91;;;17.64;76.39
41596;BME280;27283;52.504;13.358;2023-07-13T03:57:38;100953.78;;;17.84;74.81
41596;BME280;27283;52.504;13.358;2023-07-13T04:00:12;100951.47;;;17.81;75.54
41596;BME280;27283;52.504;13.358;2023-07-13T04:02:48;100954.22;;;17.95;74.24
41596;BME280;27283;52.504;13.358;2023-07-13T04:05:23;100960.09;;;18.12;73.30
41596;BME280;27283;52.504;13.358;2023-07-13T04:07:56;100953.81;;;18.11;74.29
41596;BME280;27283;52.504;13.358;2023-07-13T04:10:29;100961.34;;;17.96;75.11
41596;BME280;27283;52.504;13.358;2023-07-13T04:13:09;100963.03;;;17.97;74.87
41596;BME280;27283;52.504;13.358;2023-07-13T04:15:57;100964.91;;;18.16;72.79
41596;BME280;27283;52.504;13.358;2023-07-13T04:18:42;100955.25;;;18.27;72.47
41596;BME280;27283;52.504;13.358;2023-07-13T04:21:15;100959.81;;;18.40;71.53
41596;BME280;27283;52.504;13.358;2023-07-13T04:23:48;100957.78;;;18.29;72.89
41596;BME280;27283;52.504;13.358;2023-07-13T04:26:21;100963.81;;;18.44;71.45
41596;BME280;27283;52.504;13.358;2023-07-13T04:28:56;100957.53;;;18.44;72.21
41596;BME280;27283;52.504;13.358;2023-07-13T04:31:30;100961.09;;;18.44;72.33
41596;BME280;27283;52.504;13.358;2023-07-13T04:34:03;100963.84;;;18.37;72.28
41596;BME280;27283;52.504;13.358;2023-07-13T04:36:36;100963.19;;;18.42;71.31
41596;BME280;27283;52.504;13.358;2023-07-13T04:39:09;100970.06;;;18.58;71.16
41596;BME280;27283;52.504;13.358;2023-07-13T04:41:42;100971.75;;;18.46;71.03
41596;BME280;27283;52.504;13.358;2023-07-13T04:44:41;100971.94;;;18.57;70.88
41596;BME280;27283;52.504;13.358;2023-07-13T04:47:14;100973.88;;;18.37;71.25
41596;BME280;27283;52.504;13.358;2023-07-13T04:49:46;100987.72;;;18.29;71.20
41596;BME280;27283;52.504;13.358;2023-07-13T04:52:23;100980.16;;;18.31;71.17
41596;BME280;27283;52.504;13.358;2023-07-13T04:54:55;100976.19;;;18.33;73.47
41596;BME280;27283;52.504;13.358;2023-07-13T04:57:29;100975.94;;;18.48;72.13
41596;BME280;27283;52.504;13.358;2023-07-13T05:00:09;100973.34;;;18.87;70.22
41596;BME280;27283;52.504;13.358;2023-07-13T05:02:44;100976.28;;;18.92;71.31
41596;BME280;27283;52.504;13.358;2023-07-13T05:05:17;100977.03;;;19.06;69.92
41596;BME280;27283;52.504;13.358;2023-07-13T05:07:50;100983.03;;;19.28;68.69
41596;BME280;27283;52.504;13.358;2023-07-13T05:10:22;100987.03;;;19.57;67.86
41596;BME280;27283;52.504;13.358;2023-07-13T05:12:56;100990.06;;;19.81;67.71
41596;BME280;27283;52.504;13.358;2023-07-13T05:15:32;100998.44;;;20.74;63.56
41596;BME280;27283;52.504;13.358;2023-07-13T05:18:08;100987.50;;;21.41;58.72
41596;BME280;27283;52.504;13.358;2023-07-13T05:20:41;100989.31;;;21.77;58.96
41596;BME280;27283;52.504;13.358;2023-07-13T05:23:16;100994.47;;;22.69;55.28
41596;BME280;27283;52.504;13.358;2023-07-13T05:25:48;101001.53;;;23.46;51.86
41596;BME280;27283;52.504;13.358;2023-07-13T05:28:21;100995.38;;;24.35;49.09
41596;BME280;27283;52.504;13.358;2023-07-13T05:31:01;101001.59;;;22.93;53.34
41596;BME280;27283;52.504;13.358;2023-07-13T05:33:34;101000.66;;;23.57;51.78
41596;BME280;27283;52.504;13.358;2023-07-13T05:36:07;101006.28;;;23.22;51.75
41596;BME280;27283;52.504;13.358;2023-07-13T05:38:40;101006.31;;;23.10;52.48
41596;BME280;27283;52.504;13.358;2023-07-13T05:41:12;101012.25;;;23.18;51.45
41596;BME280;27283;52.504;13.358;2023-07-13T05:43:45;101020.31;;;23.83;48.95
41596;BME280;27283;52.504;13.358;2023-07-13T05:46:20;101012.59;;;22.58;52.75
41596;BME280;27283;52.504;13.358;2023-07-13T05:48:53;101014.72;;;22.79;51.95
41596;BME280;27283;52.504;13.358;2023-07-13T05:51:25;101011.97;;;22.79;52.47
41596;BME280;27283;52.504;13.358;2023-07-13T05:53:58;101018.75;;;22.89;53.14
41596;BME280;27283;52.504;13.358;2023-07-13T05:56:30;101020.16;;;23.73;50.99
41596;BME280;27283;52.504;13.358;2023-07-13T05:59:04;101012.38;;;24.15;49.94
41596;BME280;27283;52.504;13.358;2023-07-13T06:01:39;101015.78;;;24.22;48.82
41596;BME280;27283;52.504;13.358;2023-07-13T06:04:12;101017.69;;;23.88;49.56
41596;BME280;27283;52.504;13.358;2023-07-13T06:06:44;101013.22;;;24.16;48.96
41596;BME280;27283;52.504;13.358;2023-07-13T06:09:17;101017.22;;;23.79;49.58
41596;BME280;27283;52.504;13.358;2023-07-13T06:11:49;101018.69;;;23.53;49.70
41596;BME280;27283;52.504;13.358;2023-07-13T06:14:22;101010.38;;;23.48;51.81
41596;BME280;27283;52.504;13.358;2023-07-13T06:16:58;101007.31;;;23.90;48.53
41596;BME280;27283;52.504;13.358;2023-07-13T06:19:31;101013.66;;;24.64;47.17
41596;BME280;27283;52.504;13.358;2023-07-13T06:22:07;101005.97;;;24.10;49.24
41596;BME280;27283;52.504;13.358;2023-07-13T06:24:41;100998.44;;;23.71;49.43
41596;BME280;27283;52.504;13.358;2023-07-13T06:27:17;100995.09;;;23.11;51.38
41596;BME280;27283;52.504;13.358;2023-07-13T06:29:50;101008.50;;;23.36;51.18
41596;BME280;27283;52.504;13.358;2023-07-13T06:32:26;100999.41;;;23.48;51.49
41596;BME280;27283;52.504;13.358;2023-07-13T06:34:59;100998.25;;;23.61;50.71
41596;BME280;27283;52.504;13.358;2023-07-13T06:37:32;101001.16;;;24.95;49.12
41596;BME280;27283;52.504;13.358;2023-07-13T06:40:07;101003.63;;;25.41;45.30
41596;BME280;27283;52.504;13.358;2023-07-13T06:42:40;101011.91;;;25.19;45.79
41596;BME280;27283;52.504;13.358;2023-07-13T06:45:13;101010.53;;;25.71;44.96
41596;BME280;27283;52.504;13.358;2023-07-13T06:47:48;101005.50;;;25.62;43.62
41596;BME280;27283;52.504;13.358;2023-07-13T06:50:22;101007.84;;;25.76;43.08
41596;BME280;27283;52.504;13.358;2023-07-13T06:52:55;101002.22;;;25.65;43.58
41596;BME280;27283;52.504;13.358;2023-07-13T06:55:29;101009.53;;;26.52;42.44
41596;BME280;27283;52.504;13.358;2023-07-13T06:58:02;101012.06;;;25.12;42.73
41596;BME280;27283;52.504;13.358;2023-07-13T07:00:36;101003.06;;;25.66;44.05
41596;BME280;27283;52.504;13.358;2023-07-13T07:03:12;101007.59;;;26.10;41.19
41596;BME280;27283;52.504;13.358;2023-07-13T07:05:45;101007.66;;;26.63;40.74
41596;BME280;27283;52.504;13.358;2023-07-13T07:08:18;101000.63;;;26.40;40.96
41596;BME280;27283;52.504;13.358;2023-07-13T07:10:51;101005.38;;;26.97;39.63
41596;BME280;27283;52.504;13.358;2023-07-13T07:13:26;101006.69;;;26.42;39.80
41596;BME280;27283;52.504;13.358;2023-07-13T07:16:00;101008.59;;;26.79;40.27
41596;BME280;27283;52.504;13.358;2023-07-13T07:18:39;101002.69;;;27.23;39.06
41596;BME280;27283;52.504;13.358;2023-07-13T07:21:13;101000.00;;;25.62;42.07
41596;BME280;27283;52.504;13.358;2023-07-13T07:23:51;101014.94;;;26.74;41.31
41596;BME280;27283;52.504;13.358;2023-07-13T07:26:31;101006.97;;;27.77;37.89
41596;BME280;27283;52.504;13.358;2023-07-13T07:29:24;101011.72;;;26.50;39.75
41596;BME280;27283;52.504;13.358;2023-07-13T07:32:01;101016.19;;;26.18;39.54
41596;BME280;27283;52.504;13.358;2023-07-13T07:34:59;101013.19;;;25.11;42.07
41596;BME280;27283;52.504;13.358;2023-07-13T07:37:33;101019.25;;;25.13;42.61
41596;BME280;27283;52.504;13.358;2023-07-13T07:40:09;101020.84;;;24.65;43.96
41596;BME280;27283;52.504;13.358;2023-07-13T07:42:45;101014.78;;;24.85;42.40
41596;BME280;27283;52.504;13.358;2023-07-13T07:45:18;101021.44;;;25.33;42.11
41596;BME280;27283;52.504;13.358;2023-07-13T07:47:51;101019.22;;;24.13;43.18
41596;BME280;27283;52.504;13.358;2023-07-13T07:50:31;101022.28;;;23.99;45.31
41596;BME280;27283;52.504;13.358;2023-07-13T07:53:07;101017.78;;;24.27;45.43
41596;BME280;27283;52.504;13.358;2023-07-13T07:55:42;101017.06;;;23.69;44.27
41596;BME280;27283;52.504;13.358;2023-07-13T07:58:21;101015.16;;;24.54;44.29
41596;BME280;27283;52.504;13.358;2023-07-13T08:01:04;101029.47;;;24.73;42.75
41596;BME280;27283;52.504;13.358;2023-07-13T08:03:44;101024.88;;;23.60;44.09
41596;BME280;27283;52.504;13.358;2023-07-13T08:06:23;101031.44;;;23.30;44.58
41596;BME280;27283;52.504;13.358;2023-07-13T08:09:16;101024.25;;;23.58;44.01
41596;BME280;27283;52.504;13.358;2023-07-13T08:11:55;101040.28;;;24.58;43.55
41596;BME280;27283;52.504;13.358;2023-07-13T08:14:33;101037.66;;;24.51;42.47
41596;BME280;27283;52.504;13.358;2023-07-13T08:17:21;101032.59;;;24.09;43.19
41596;BME280;27283;52.504;13.358;2023-07-13T08:19:57;101032.78;;;23.85;44.39
41596;BME280;27283;52.504;13.358;2023-07-13T08:22:39;101032.91;;;23.96;45.40
41596;BME280;27283;52.504;13.358;2023-07-13T08:25:16;101020.09;;;24.91;43.00
41596;BME280;27283;52.504;13.358;2023-07-13T08:27:50;101032.19;;;25.12;45.02
41596;BME280;27283;52.504;13.358;2023-07-13T08:30:23;101038.22;;;25.09;42.12
41596;BME280;27283;52.504;13.358;2023-07-13T08:32:59;101035.91;;;24.45;44.00
41596;BME280;27283;52.504;13.358;2023-07-13T08:35:32;101043.50;;;24.04;44.61
41596;BME280;27283;52.504;13.358;2023-07-13T08:38:08;101043.53;;;23.75;45.07
41596;BME280;27283;52.504;13.358;2023-07-13T08:40:43;101048.09;;;23.69;44.85
41596;BME280;27283;52.504;13.358;2023-07-13T08:43:18;101048.91;;;23.70;46.02
41596;BME280;27283;52.504;13.358;2023-07-13T08:46:04;101046.91;;;23.94;46.42
41596;BME280;27283;52.504;13.358;2023-07-13T08:48:43;101045.75;;;23.61;47.32
41596;BME280;27283;52.504;13.358;2023-07-13T08:51:29;101040.84;;;23.63;47.15
41596;BME280;27283;52.504;13.358;2023-07-13T08:54:19;101049.16;;;23.97;44.71
41596;BME280;27283;52.504;13.358;2023-07-13T08:56:56;101045.34;;;24.32;43.94
41596;BME280;27283;52.504;13.358;2023-07-13T08:59:33;101041.03;;;25.37;40.76
41596;BME280;27283;52.504;13.358;2023-07-13T09:02:26;101042.59;;;26.09;40.42
41596;BME280;27283;52.504;13.358;2023-07-13T09:05:02;101042.69;;;27.15;38.68
41596;BME280;27283;52.504;13.358;2023-07-13T09:07:46;101052.50;;;27.44;37.30
41596;BME280;27283;52.504;13.358;2023-07-13T09:10:30;101046.81;;;27.13;40.18
41596;BME280;27283;52.504;13.358;2023-07-13T09:13:15;101053.47;;;27.17;36.46
41596;BME280;27283;52.504;13.358;2023-07-13T09:15:53;101048.06;;;27.43;37.00
41596;BME280;27283;52.504;13.358;2023-07-13T09:18:29;101043.56;;;27.21;35.47
41596;BME280;27283;52.504;13.358;2023-07-13T09:21:08;101050.53;;;26.06;35.44
41596;BME280;27283;52.504;13.358;2023-07-13T09:23:43;101046.69;;;26.07;35.69
41596;BME280;27283;52.504;13.358;2023-07-13T09:26:20;101044.22;;;25.06;36.44
41596;BME280;27283;52.504;13.358;2023-07-13T09:29:06;101036.44;;;25.70;37.23
41596;BME280;27283;52.504;13.358;2023-07-13T09:31:45;101043.25;;;26.27;37.04
41596;BME280;27283;52.504;13.358;2023-07-13T09:34:22;101035.97;;;27.85;35.26
41596;BME280;27283;52.504;13.358;2023-07-13T09:36:55;101033.13;;;27.33;34.25
41596;BME280;27283;52.504;13.358;2023-07-13T09:39:33;101037.19;;;27.20;35.19
41596;BME280;27283;52.504;13.358;2023-07-13T09:42:15;101028.75;;;28.56;33.95
41596;BME280;27283;52.504;13.358;2023-07-13T09:44:53;101049.19;;;29.51;35.29
41596;BME280;27283;52.504;13.358;2023-07-13T09:47:28;101048.78;;;29.73;31.94
41596;BME280;27283;52.504;13.358;2023-07-13T09:50:06;101046.00;;;30.13;30.44
41596;BME280;27283;52.504;13.358;2023-07-13T09:52:43;101051.78;;;29.77;30.37
41596;BME280;27283;52.504;13.358;2023-07-13T09:55:26;101046.28;;;29.16;29.75
41596;BME280;27283;52.504;13.358;2023-07-13T09:58:03;101046.47;;;29.46;29.67
41596;BME280;27283;52.504;13.358;2023-07-13T10:00:38;101044.00;;;28.27;32.78
41596;BME280;27283;52.504;13.358;2023-07-13T10:03:23;101052.00;;;27.77;31.50
41596;BME280;27283;52.504;13.358;2023-07-13T10:06:03;101045.06;;;27.59;32.61
41596;BME280;27283;52.504;13.358;2023-07-13T10:08:43;101043.78;;;27.09;32.47
41596;BME280;27283;52.504;13.358;2023-07-13T10:11:19;101036.25;;;27.83;32.43
41596;BME280;27283;52.504;13.358;2023-07-13T10:13:57;101048.72;;;28.27;31.71
41596;BME280;27283;52.504;13.358;2023-07-13T10:16:33;101044.88;;;28.18;34.18
41596;BME280;27283;52.504;13.358;2023-07-13T10:19:12;101040.22;;;29.09;31.67
41596;BME280;27283;52.504;13.358;2023-07-13T10:21:52;101034.91;;;29.73;32.50
41596;BME280;27283;52.504;13.358;2023-07-13T10:24:27;101035.72;;;28.33;30.97
41596;BME280;27283;52.504;13.358;2023-07-13T10:27:05;101041.22;;;27.71;34.61
41596;BME280;27283;52.504;13.358;2023-07-13T10:29:48;101040.69;;;27.84;31.80
41596;BME280;27283;52.504;13.358;2023-07-13T10:32:24;101037.13;;;27.99;31.73
41596;BME280;27283;52.504;13.358;2023-07-13T10:34:58;101041.25;;;28.33;31.09
41596;BME280;27283;52.504;13.358;2023-07-13T10:37:41;101048.72;;;28.37;32.00
41596;BME280;27283;52.504;13.358;2023-07-13T10:40:20;101040.97;;;29.80;31.20
41596;BME280;27283;52.504;13.358;2023-07-13T10:42:57;101050.38;;;30.78;28.55
41596;BME280;27283;52.504;13.358;2023-07-13T10:45:36;101044.59;;;29.26;29.60
41596;BME280;27283;52.504;13.358;2023-07-13T10:48:13;101043.00;;;29.64;30.72
41596;BME280;27283;52.504;13.358;2023-07-13T10:50:48;101050.94;;;30.50;29.25
41596;BME280;27283;52.504;13.358;2023-07-13T10:53:29;101036.66;;;30.03;28.36
41596;BME280;27283;52.504;13.358;2023-07-13T10:56:03;101033.78;;;29.74;28.90
41596;BME280;27283;52.504;13.358;2023-07-13T10:58:42;101039.66;;;30.90;29.11
41596;BME280;27283;52.504;13.358;2023-07-13T11:01:18;101037.38;;;30.14;27.72
41596;BME280;27283;52.504;13.358;2023-07-13T11:03:56;101035.81;;;29.08;30.05
41596;BME280;27283;52.504;13.358;2023-07-13T11:06:37;101018.03;;;30.09;30.08
41596;BME280;27283;52.504;13.358;2023-07-13T11:09:31;101032.44;;;30.89;28.96
41596;BME280;27283;52.504;13.358;2023-07-13T11:12:27;101031.31;;;30.42;28.68
41596;BME280;27283;52.504;13.358;2023-07-13T11:15:05;101041.41;;;29.98;28.53
41596;BME280;27283;52.504;13.358;2023-07-13T11:17:55;101035.59;;;30.58;27.73
41596;BME280;27283;52.504;13.358;2023-07-13T11:20:33;101040.06;;;30.54;28.00
41596;BME280;27283;52.504;13.358;2023-07-13T11:23:33;101035.09;;;30.21;29.77
41596;BME280;27283;52.504;13.358;2023-07-13T11:29:27;101026.25;;;28.70;29.56
41596;BME280;27283;52.504;13.358;2023-07-13T11:32:22;101029.63;;;28.36;30.05
41596;BME280;27283;52.504;13.358;2023-07-13T11:34:59;101036.25;;;27.73;30.34
41596;BME280;27283;52.504;13.358;2023-07-13T11:37:33;101035.19;;;28.00;31.21
41596;BME280;27283;52.504;13.358;2023-07-13T11:40:13;101018.50;;;28.77;31.06
41596;BME280;27283;52.504;13.358;2023-07-13T11:42:47;101017.69;;;28.56;30.41
41596;BME280;27283;52.504;13.358;2023-07-13T11:45:21;101032.66;;;27.83;29.65
41596;BME280;27283;52.504;13.358;2023-07-13T11:48:20;101038.47;;;26.92;30.61
41596;BME280;27283;52.504;13.358;2023-07-13T11:51:03;101035.88;;;26.32;31.74
41596;BME280;27283;52.504;13.358;2023-07-13T11:53:40;101032.81;;;27.30;31.31
41596;BME280;27283;52.504;13.358;2023-07-13T11:56:14;101021.06;;;27.75;30.47
41596;BME280;27283;52.504;13.358;2023-07-13T11:58:50;101019.63;;;28.71;31.38
41596;BME280;27283;52.504;13.358;2023-07-13T12:01:26;101020.38;;;29.47;30.85
41596;BME280;27283;52.504;13.358;2023-07-13T12:04:04;101025.31;;;29.05;27.83
41596;BME280;27283;52.504;13.358;2023-07-13T12:06:41;101017.13;;;27.40;31.08
41596;BME280;27283;52.504;13.358;2023-07-13T12:09:15;101011.09;;;27.69;30.76
41596;BME280;27283;52.504;13.358;2023-07-13T12:11:50;101020.34;;;27.12;31.48
41596;BME280;27283;52.504;13.358;2023-07-13T12:14:24;101026.78;;;26.75;32.23
41596;BME280;27283;52.504;13.358;2023-07-13T12:16:57;101011.38;;;25.98;32.91
41596;BME280;27283;52.504;13.358;2023-07-13T12:19:33;101018.75;;;26.68;32.88
41596;BME280;27283;52.504;13.358;2023-07-13T12:22:13;101023.81;;;26.81;33.21
41596;BME280;27283;52.504;13.358;2023-07-13T12:24:48;101022.69;;;26.82;32.76
41596;BME280;27283;52.504;13.358;2023-07-13T12:27:24;101028.94;;;26.30;33.08
41596;BME280;27283;52.504;13.358;2023-07-13T12:30:00;101024.41;;;26.51;32.52
41596;BME280;27283;52.504;13.358;2023-07-13T12:32:35;101018.84;;;26.03;32.49
41596;BME280;27283;52.504;13.358;2023-07-13T12:35:15;101026.78;;;26.32;32.97
41596;BME280;27283;52.504;13.358;2023-07-13T12:37:54;101022.31;;;25.39;34.02
41596;BME280;27283;52.504;13.358;2023-07-13T12:40:34;101017.63;;;26.26;33.63
41596;BME280;27283;52.504;13.358;2023-07-13T12:43:12;101021.34;;;25.77;33.41
41596;BME280;27283;52.504;13.358;2023-07-13T12:45:57;101028.47;;;26.38;32.44
41596;BME280;27283;52.504;13.358;2023-07-13T12:48:39;101029.09;;;26.13;32.38
41596;BME280;27283;52.504;13.358;2023-07-13T12:51:29;101014.78;;;26.11;32.57
41596;BME280;27283;52.504;13.358;2023-07-13T12:54:14;101006.66;;;26.74;32.70
41596;BME280;27283;52.504;13.358;2023-07-13T12:56:50;101006.94;;;26.73;32.01
41596;BME280;27283;52.504;13.358;2023-07-13T12:59:34;101021.28;;;25.99;32.90
41596;BME280;27283;52.504;13.358;2023-07-13T13:02:25;101017.38;;;26.33;32.56
41596;BME280;27283;52.504;13.358;2023-07-13T13:05:01;101027.59;;;26.70;32.87
41596;BME280;27283;52.504;13.358;2023-07-13T13:07:39;101024.03;;;25.99;32.60
41596;BME280;27283;52.504;13.358;2023-07-13T13:10:18;101017.72;;;26.04;33.21
41596;BME280;27283;52.504;13.358;2023-07-13T13:12:52;101022.56;;;26.62;33.53
41596;BME280;27283;52.504;13.358;2023-07-13T13:15:25;101019.59;;;26.31;32.62
41596;BME280;27283;52.504;13.358;2023-07-13T13:18:00;101025.44;;;26.40;33.27
41596;BME280;27283;52.504;13.358;2023-07-13T13:20:33;101027.66;;;26.80;32.52
41596;BME280;27283;52.504;13.358;2023-07-13T13:23:09;101024.72;;;26.55;34.05
41596;BME280;27283;52.504;13.358;2023-07-13T13:25:50;101018.88;;;26.51;32.76
41596;BME280;27283;52.504;13.358;2023-07-13T13:28:23;101017.69;;;25.99;32.20
41596;BME280;27283;52.504;13.358;2023-07-13T13:30:56;101011.13;;;26.05;31.99
41596;BME280;27283;52.504;13.358;2023-07-13T13:33:30;101016.03;;;26.30;32.22
41596;BME280;27283;52.504;13.358;2023-07-13T13:36:04;101024.28;;;26.30;31.88